sensor_id;sensor_type;location;lat;lon;timestamp;temperature;humidity
60242;SHT30;46103;52.076;113.488;2023-01-28T00:02:37;-9.21;55.72
60242;SHT30;46103;52.076;113.488;2023-01-28T00:06:11;-9.25;55.72
60242;SHT30;46103;52.076;113.488;2023-01-28T00:09:19;-9.23;55.41
60242;SHT30;46103;52.076;113.488;2023-01-28T00:12:53;-9.26;55.51
60242;SHT30;46103;52.076;113.488;2023-01-28T00:16:05;-9.29;55.80
60242;SHT30;46103;52.076;113.488;2023-01-28T00:20:06;-9.32;55.73
60242;SHT30;46103;52.076;113.488;2023-01-28T00:23:18;-9.33;55.61
60242;SHT30;46103;52.076;113.488;2023-01-28T00:26:25;-9.35;55.47
60242;SHT30;46103;52.076;113.488;2023-01-28T00:30:06;-9.35;55.42
60242;SHT30;46103;52.076;113.488;2023-01-28T00:34:14;-9.39;55.22
60242;SHT30;46103;52.076;113.488;2023-01-28T00:37:22;-9.40;55.37
60242;SHT30;46103;52.076;113.488;2023-01-28T00:40:26;-9.38;55.21
60242;SHT30;46103;52.076;113.488;2023-01-28T00:43:30;-9.29;54.93
60242;SHT30;46103;52.076;113.488;2023-01-28T00:46:35;-9.26;54.68
60242;SHT30;46103;52.076;113.488;2023-01-28T00:49:38;-9.22;54.59
60242;SHT30;46103;52.076;113.488;2023-01-28T00:52:43;-9.15;54.32
60242;SHT30;46103;52.076;113.488;2023-01-28T00:55:47;-9.07;54.05
60242;SHT30;46103;52.076;113.488;2023-01-28T00:58:51;-9.04;53.75
60242;SHT30;46103;52.076;113.488;2023-01-28T01:01:55;-8.98;53.55
60242;SHT30;46103;52.076;113.488;2023-01-28T01:05:15;-8.85;53.26
60242;SHT30;46103;52.076;113.488;2023-01-28T01:08:18;-8.74;53.39
60242;SHT30;46103;52.076;113.488;2023-01-28T01:11:24;-8.66;52.21
60242;SHT30;46103;52.076;113.488;2023-01-28T01:14:28;-8.64;51.97
60242;SHT30;46103;52.076;113.488;2023-01-28T01:17:49;-8.57;51.77
60242;SHT30;46103;52.076;113.488;2023-01-28T01:20:53;-8.52;51.60
60242;SHT30;46103;52.076;113.488;2023-01-28T01:24:02;-8.50;51.56
60242;SHT30;46103;52.076;113.488;2023-01-28T01:27:20;-8.47;51.37
60242;SHT30;46103;52.076;113.488;2023-01-28T01:30:35;-8.39;51.36
60242;SHT30;46103;52.076;113.488;2023-01-28T01:33:51;-8.33;51.06
60242;SHT30;46103;52.076;113.488;2023-01-28T01:41:37;-8.17;50.68
60242;SHT30;46103;52.076;113.488;2023-01-28T01:45:05;-8.12;50.66
60242;SHT30;46103;52.076;113.488;2023-01-28T01:48:31;-8.08;50.68
60242;SHT30;46103;52.076;113.488;2023-01-28T01:51:45;-8.04;50.46
60242;SHT30;46103;52.076;113.488;2023-01-28T01:55:11;-8.02;50.51
60242;SHT30;46103;52.076;113.488;2023-01-28T01:58:25;-8.01;50.58
60242;SHT30;46103;52.076;113.488;2023-01-28T02:01:43;-7.87;50.32
60242;SHT30;46103;52.076;113.488;2023-01-28T02:04:56;-7.71;50.04
60242;SHT30;46103;52.076;113.488;2023-01-28T02:08:19;-7.54;49.65
60242;SHT30;46103;52.076;113.488;2023-01-28T02:11:49;-7.35;49.38
60242;SHT30;46103;52.076;113.488;2023-01-28T02:15:13;-7.19;48.78
60242;SHT30;46103;52.076;113.488;2023-01-28T02:18:19;-7.12;48.68
60242;SHT30;46103;52.076;113.488;2023-01-28T02:38:04;-7.14;48.39
60242;SHT30;46103;52.076;113.488;2023-01-28T02:47:50;-6.77;48.15
60242;SHT30;46103;52.076;113.488;2023-01-28T02:52:31;-6.22;47.19
60242;SHT30;46103;52.076;113.488;2023-01-28T02:56:38;-5.63;45.97
60242;SHT30;46103;52.076;113.488;2023-01-28T03:00:11;-5.43;45.26
60242;SHT30;46103;52.076;113.488;2023-01-28T03:04:08;-5.21;44.67
60242;SHT30;46103;52.076;113.488;2023-01-28T03:07:19;-5.12;44.36
60242;SHT30;46103;52.076;113.488;2023-01-28T03:11:01;-4.90;43.88
60242;SHT30;46103;52.076;113.488;2023-01-28T03:15:22;-4.74;44.02
60242;SHT30;46103;52.076;113.488;2023-01-28T03:19:01;-4.67;43.69
60242;SHT30;46103;52.076;113.488;2023-01-28T03:23:00;-4.44;43.50
60242;SHT30;46103;52.076;113.488;2023-01-28T03:27:27;-4.60;44.00
60242;SHT30;46103;52.076;113.488;2023-01-28T03:32:07;-4.45;43.52
60242;SHT30;46103;52.076;113.488;2023-01-28T03:35:56;-4.33;43.61
60242;SHT30;46103;52.076;113.488;2023-01-28T03:39:23;-4.66;44.22
60242;SHT30;46103;52.076;113.488;2023-01-28T03:47:10;-4.53;44.71
60242;SHT30;46103;52.076;113.488;2023-01-28T03:50:15;-4.56;44.57
60242;SHT30;46103;52.076;113.488;2023-01-28T03:53:28;-4.56;44.94
60242;SHT30;46103;52.076;113.488;2023-01-28T03:56:32;-4.59;45.56
60242;SHT30;46103;52.076;113.488;2023-01-28T03:59:39;-4.44;45.57
60242;SHT30;46103;52.076;113.488;2023-01-28T04:02:43;-4.12;44.74
60242;SHT30;46103;52.076;113.488;2023-01-28T04:06:00;-4.04;45.65
60242;SHT30;46103;52.076;113.488;2023-01-28T04:09:26;-4.15;45.34
60242;SHT30;46103;52.076;113.488;2023-01-28T04:12:59;-4.17;45.87
60242;SHT30;46103;52.076;113.488;2023-01-28T04:16:03;-3.94;45.92
60242;SHT30;46103;52.076;113.488;2023-01-28T04:19:13;-3.59;46.79
60242;SHT30;46103;52.076;113.488;2023-01-28T04:22:18;-3.21;45.22
60242;SHT30;46103;52.076;113.488;2023-01-28T04:25:25;-3.08;45.61
60242;SHT30;46103;52.076;113.488;2023-01-28T04:28:28;-2.65;44.39
60242;SHT30;46103;52.076;113.488;2023-01-28T04:31:34;-2.35;43.19
60242;SHT30;46103;52.076;113.488;2023-01-28T04:35:09;-1.93;42.70
60242;SHT30;46103;52.076;113.488;2023-01-28T04:38:45;-1.66;42.31
60242;SHT30;46103;52.076;113.488;2023-01-28T04:42:12;-2.11;42.44
60242;SHT30;46103;52.076;113.488;2023-01-28T04:45:32;-2.31;43.29
60242;SHT30;46103;52.076;113.488;2023-01-28T04:48:54;-2.22;43.82
60242;SHT30;46103;52.076;113.488;2023-01-28T04:52:24;-1.90;42.96
60242;SHT30;46103;52.076;113.488;2023-01-28T04:55:34;-1.60;42.04
60242;SHT30;46103;52.076;113.488;2023-01-28T04:58:38;-1.81;42.53
60242;SHT30;46103;52.076;113.488;2023-01-28T05:01:46;-1.48;42.26
60242;SHT30;46103;52.076;113.488;2023-01-28T05:04:50;-1.39;41.76
60242;SHT30;46103;52.076;113.488;2023-01-28T05:08:20;-1.01;41.27
60242;SHT30;46103;52.076;113.488;2023-01-28T05:11:24;-0.93;41.33
60242;SHT30;46103;52.076;113.488;2023-01-28T05:14:32;-0.67;40.65
60242;SHT30;46103;52.076;113.488;2023-01-28T05:17:40;-0.80;40.26
60242;SHT30;46103;52.076;113.488;2023-01-28T05:20:46;-0.48;40.03
60242;SHT30;46103;52.076;113.488;2023-01-28T05:23:51;-0.21;39.47
60242;SHT30;46103;52.076;113.488;2023-01-28T05:26:55;-0.02;38.99
60242;SHT30;46103;52.076;113.488;2023-01-28T05:29:59;0.02;38.85
60242;SHT30;46103;52.076;113.488;2023-01-28T05:33:02;-0.05;38.99
60242;SHT30;46103;52.076;113.488;2023-01-28T05:36:07;-0.12;38.85
60242;SHT30;46103;52.076;113.488;2023-01-28T05:39:12;-0.22;39.52
60242;SHT30;46103;52.076;113.488;2023-01-28T05:42:16;-0.11;39.69
60242;SHT30;46103;52.076;113.488;2023-01-28T05:45:27;-0.11;39.29
60242;SHT30;46103;52.076;113.488;2023-01-28T05:48:46;-0.14;39.39
60242;SHT30;46103;52.076;113.488;2023-01-28T05:52:09;-0.14;39.66
60242;SHT30;46103;52.076;113.488;2023-01-28T05:55:13;-0.10;39.59
60242;SHT30;46103;52.076;113.488;2023-01-28T05:58:17;-0.30;39.33
60242;SHT30;46103;52.076;113.488;2023-01-28T06:01:21;-0.67;39.90
60242;SHT30;46103;52.076;113.488;2023-01-28T06:04:28;-1.05;40.95
60242;SHT30;46103;52.076;113.488;2023-01-28T06:07:32;-1.35;41.75
60242;SHT30;46103;52.076;113.488;2023-01-28T06:10:37;-1.66;42.15
60242;SHT30;46103;52.076;113.488;2023-01-28T06:13:45;-2.25;43.28
60242;SHT30;46103;52.076;113.488;2023-01-28T06:17:07;-2.56;44.10
60242;SHT30;46103;52.076;113.488;2023-01-28T06:20:36;-2.72;44.77
60242;SHT30;46103;52.076;113.488;2023-01-28T06:23:40;-2.65;44.62
60242;SHT30;46103;52.076;113.488;2023-01-28T06:26:44;-2.60;44.60
60242;SHT30;46103;52.076;113.488;2023-01-28T06:29:48;-2.44;44.51
60242;SHT30;46103;52.076;113.488;2023-01-28T06:32:55;-2.18;44.01
60242;SHT30;46103;52.076;113.488;2023-01-28T06:36:04;-2.19;43.28
60242;SHT30;46103;52.076;113.488;2023-01-28T06:39:12;-1.98;42.83
60242;SHT30;46103;52.076;113.488;2023-01-28T06:42:18;-1.93;42.16
60242;SHT30;46103;52.076;113.488;2023-01-28T06:45:29;-2.35;42.68
60242;SHT30;46103;52.076;113.488;2023-01-28T06:48:33;-2.17;42.43
60242;SHT30;46103;52.076;113.488;2023-01-28T06:51:37;-2.11;42.19
60242;SHT30;46103;52.076;113.488;2023-01-28T06:54:40;-2.08;41.86
60242;SHT30;46103;52.076;113.488;2023-01-28T06:57:44;-2.05;41.91
60242;SHT30;46103;52.076;113.488;2023-01-28T07:00:47;-2.35;42.35
60242;SHT30;46103;52.076;113.488;2023-01-28T07:03:50;-2.79;43.51
60242;SHT30;46103;52.076;113.488;2023-01-28T07:06:54;-2.90;43.98
60242;SHT30;46103;52.076;113.488;2023-01-28T07:10:01;-3.03;44.58
60242;SHT30;46103;52.076;113.488;2023-01-28T07:13:10;-3.28;44.77
60242;SHT30;46103;52.076;113.488;2023-01-28T07:16:15;-3.60;45.47
60242;SHT30;46103;52.076;113.488;2023-01-28T07:19:19;-3.70;45.65
60242;SHT30;46103;52.076;113.488;2023-01-28T07:22:23;-3.60;45.39
60242;SHT30;46103;52.076;113.488;2023-01-28T07:25:27;-3.49;45.15
60242;SHT30;46103;52.076;113.488;2023-01-28T07:28:33;-3.34;44.90
60242;SHT30;46103;52.076;113.488;2023-01-28T07:31:37;-3.19;44.69
60242;SHT30;46103;52.076;113.488;2023-01-28T07:34:41;-3.00;43.60
60242;SHT30;46103;52.076;113.488;2023-01-28T07:37:57;-2.94;43.73
60242;SHT30;46103;52.076;113.488;2023-01-28T07:41:02;-2.98;43.59
60242;SHT30;46103;52.076;113.488;2023-01-28T07:44:06;-2.98;43.46
60242;SHT30;46103;52.076;113.488;2023-01-28T07:47:09;-3.00;43.43
60242;SHT30;46103;52.076;113.488;2023-01-28T07:50:13;-3.11;43.65
60242;SHT30;46103;52.076;113.488;2023-01-28T07:53:18;-3.14;43.68
60242;SHT30;46103;52.076;113.488;2023-01-28T07:56:22;-3.09;43.51
60242;SHT30;46103;52.076;113.488;2023-01-28T07:59:25;-3.08;43.64
60242;SHT30;46103;52.076;113.488;2023-01-28T08:02:29;-3.16;43.53
60242;SHT30;46103;52.076;113.488;2023-01-28T08:05:52;-3.36;43.75
60242;SHT30;46103;52.076;113.488;2023-01-28T08:08:57;-3.43;44.55
60242;SHT30;46103;52.076;113.488;2023-01-28T08:12:01;-3.46;44.49
60242;SHT30;46103;52.076;113.488;2023-01-28T08:15:06;-3.50;44.31
60242;SHT30;46103;52.076;113.488;2023-01-28T08:18:12;-3.50;44.56
60242;SHT30;46103;52.076;113.488;2023-01-28T08:21:16;-3.49;44.23
60242;SHT30;46103;52.076;113.488;2023-01-28T08:24:20;-3.70;44.84
60242;SHT30;46103;52.076;113.488;2023-01-28T08:27:24;-3.94;45.51
60242;SHT30;46103;52.076;113.488;2023-01-28T08:30:28;-4.05;45.86
60242;SHT30;46103;52.076;113.488;2023-01-28T08:33:33;-4.19;46.18
60242;SHT30;46103;52.076;113.488;2023-01-28T08:36:36;-4.30;46.42
60242;SHT30;46103;52.076;113.488;2023-01-28T08:39:41;-4.46;46.74
60242;SHT30;46103;52.076;113.488;2023-01-28T08:42:49;-4.69;47.10
60242;SHT30;46103;52.076;113.488;2023-01-28T08:45:55;-4.83;47.44
60242;SHT30;46103;52.076;113.488;2023-01-28T08:49:01;-5.00;47.58
60242;SHT30;46103;52.076;113.488;2023-01-28T08:52:13;-5.14;47.56
60242;SHT30;46103;52.076;113.488;2023-01-28T08:55:26;-5.23;47.44
60242;SHT30;46103;52.076;113.488;2023-01-28T08:58:29;-5.28;47.47
60242;SHT30;46103;52.076;113.488;2023-01-28T09:01:33;-5.36;47.62
60242;SHT30;46103;52.076;113.488;2023-01-28T09:04:37;-5.43;47.46
60242;SHT30;46103;52.076;113.488;2023-01-28T09:07:41;-5.50;47.60
60242;SHT30;46103;52.076;113.488;2023-01-28T09:10:44;-5.58;47.60
60242;SHT30;46103;52.076;113.488;2023-01-28T09:13:47;-5.69;47.80
60242;SHT30;46103;52.076;113.488;2023-01-28T09:16:50;-5.77;47.89
60242;SHT30;46103;52.076;113.488;2023-01-28T09:19:53;-5.88;48.59
60242;SHT30;46103;52.076;113.488;2023-01-28T09:22:58;-5.95;48.96
60242;SHT30;46103;52.076;113.488;2023-01-28T09:26:03;-6.07;49.48
60242;SHT30;46103;52.076;113.488;2023-01-28T09:29:07;-6.11;49.88
60242;SHT30;46103;52.076;113.488;2023-01-28T09:32:10;-6.22;50.72
60242;SHT30;46103;52.076;113.488;2023-01-28T09:35:14;-6.32;51.48
60242;SHT30;46103;52.076;113.488;2023-01-28T09:38:18;-6.35;51.97
60242;SHT30;46103;52.076;113.488;2023-01-28T09:45:18;-6.46;53.29
60242;SHT30;46103;52.076;113.488;2023-01-28T09:48:03;-6.47;53.37
60242;SHT30;46103;52.076;113.488;2023-01-28T09:57:49;-6.62;55.07
60242;SHT30;46103;52.076;113.488;2023-01-28T10:08:01;-6.81;56.47
60242;SHT30;46103;52.076;113.488;2023-01-28T10:18:03;-6.93;57.09
60242;SHT30;46103;52.076;113.488;2023-01-28T10:21:40;-6.98;57.20
60242;SHT30;46103;52.076;113.488;2023-01-28T10:24:53;-6.98;57.15
60242;SHT30;46103;52.076;113.488;2023-01-28T10:28:00;-6.98;57.29
60242;SHT30;46103;52.076;113.488;2023-01-28T10:31:12;-6.98;57.14
60242;SHT30;46103;52.076;113.488;2023-01-28T10:34:20;-6.98;57.24
60242;SHT30;46103;52.076;113.488;2023-01-28T10:37:24;-7.01;56.97
60242;SHT30;46103;52.076;113.488;2023-01-28T10:40:29;-7.05;56.85
60242;SHT30;46103;52.076;113.488;2023-01-28T10:43:36;-7.11;56.75
60242;SHT30;46103;52.076;113.488;2023-01-28T10:46:42;-7.22;56.86
60242;SHT30;46103;52.076;113.488;2023-01-28T10:49:52;-7.26;56.64
60242;SHT30;46103;52.076;113.488;2023-01-28T10:53:04;-7.31;56.39
60242;SHT30;46103;52.076;113.488;2023-01-28T10:56:13;-7.36;56.18
60242;SHT30;46103;52.076;113.488;2023-01-28T10:59:30;-7.32;54.68
60242;SHT30;46103;52.076;113.488;2023-01-28T11:02:33;-7.16;53.71
60242;SHT30;46103;52.076;113.488;2023-01-28T11:05:50;-7.09;53.16
60242;SHT30;46103;52.076;113.488;2023-01-28T11:08:54;-7.15;52.99
60242;SHT30;46103;52.076;113.488;2023-01-28T11:12:28;-7.12;52.44
60242;SHT30;46103;52.076;113.488;2023-01-28T11:16:15;-7.12;51.99
60242;SHT30;46103;52.076;113.488;2023-01-28T11:19:23;-7.21;52.78
60242;SHT30;46103;52.076;113.488;2023-01-28T11:22:30;-7.33;53.15
60242;SHT30;46103;52.076;113.488;2023-01-28T11:25:36;-7.33;53.00
60242;SHT30;46103;52.076;113.488;2023-01-28T11:28:40;-7.43;52.78
60242;SHT30;46103;52.076;113.488;2023-01-28T11:31:45;-7.35;50.98
60242;SHT30;46103;52.076;113.488;2023-01-28T11:34:51;-7.28;50.05
60242;SHT30;46103;52.076;113.488;2023-01-28T11:37:59;-7.25;49.18
60242;SHT30;46103;52.076;113.488;2023-01-28T11:41:02;-7.23;49.06
60242;SHT30;46103;52.076;113.488;2023-01-28T11:44:17;-7.12;48.35
60242;SHT30;46103;52.076;113.488;2023-01-28T11:47:25;-7.08;48.35
60242;SHT30;46103;52.076;113.488;2023-01-28T11:50:45;-7.07;48.48
60242;SHT30;46103;52.076;113.488;2023-01-28T11:57:20;-7.11;48.68
60242;SHT30;46103;52.076;113.488;2023-01-28T12:04:24;-7.12;48.95
60242;SHT30;46103;52.076;113.488;2023-01-28T12:07:45;-7.12;49.12
60242;SHT30;46103;52.076;113.488;2023-01-28T12:14:27;-7.19;49.46
60242;SHT30;46103;52.076;113.488;2023-01-28T12:35:04;-7.53;50.12
60242;SHT30;46103;52.076;113.488;2023-01-28T12:41:28;-7.61;50.55
60242;SHT30;46103;52.076;113.488;2023-01-28T12:44:41;-7.71;50.54
60242;SHT30;46103;52.076;113.488;2023-01-28T12:48:10;-7.84;51.15
60242;SHT30;46103;52.076;113.488;2023-01-28T12:51:15;-7.90;51.16
60242;SHT30;46103;52.076;113.488;2023-01-28T12:54:27;-7.94;51.29
60242;SHT30;46103;52.076;113.488;2023-01-28T12:57:34;-7.95;51.20
60242;SHT30;46103;52.076;113.488;2023-01-28T13:00:42;-8.02;51.81
60242;SHT30;46103;52.076;113.488;2023-01-28T13:03:53;-8.08;51.67
60242;SHT30;46103;52.076;113.488;2023-01-28T13:10:36;-8.14;52.20
60242;SHT30;46103;52.076;113.488;2023-01-28T13:13:42;-8.18;52.30
60242;SHT30;46103;52.076;113.488;2023-01-28T13:16:47;-8.22;52.76
60242;SHT30;46103;52.076;113.488;2023-01-28T13:19:51;-8.33;52.41
60242;SHT30;46103;52.076;113.488;2023-01-28T13:23:04;-8.30;52.71
60242;SHT30;46103;52.076;113.488;2023-01-28T13:32:33;-8.45;53.08
60242;SHT30;46103;52.076;113.488;2023-01-28T13:35:39;-8.52;53.39
60242;SHT30;46103;52.076;113.488;2023-01-28T13:38:44;-8.63;53.72
60242;SHT30;46103;52.076;113.488;2023-01-28T13:42:08;-8.68;53.85
60242;SHT30;46103;52.076;113.488;2023-01-28T13:45:20;-8.71;54.07
60242;SHT30;46103;52.076;113.488;2023-01-28T13:48:45;-8.83;54.16
60242;SHT30;46103;52.076;113.488;2023-01-28T13:52:55;-8.84;54.83
60242;SHT30;46103;52.076;113.488;2023-01-28T13:55:38;-8.88;54.55
60242;SHT30;46103;52.076;113.488;2023-01-28T13:59:20;-8.85;54.90
60242;SHT30;46103;52.076;113.488;2023-01-28T14:19:15;-9.09;55.32
60242;SHT30;46103;52.076;113.488;2023-01-28T14:22:20;-9.12;55.57
60242;SHT30;46103;52.076;113.488;2023-01-28T14:28:54;-9.15;55.63
60242;SHT30;46103;52.076;113.488;2023-01-28T14:32:11;-9.14;55.65
60242;SHT30;46103;52.076;113.488;2023-01-28T14:35:27;-9.11;55.85
60242;SHT30;46103;52.076;113.488;2023-01-28T14:38:37;-9.14;55.72
60242;SHT30;46103;52.076;113.488;2023-01-28T14:41:43;-9.23;55.95
60242;SHT30;46103;52.076;113.488;2023-01-28T14:45:36;-9.19;56.14
60242;SHT30;46103;52.076;113.488;2023-01-28T14:51:37;-9.23;55.95
60242;SHT30;46103;52.076;113.488;2023-01-28T14:54:54;-9.28;56.02
60242;SHT30;46103;52.076;113.488;2023-01-28T15:01:28;-9.32;56.08
60242;SHT30;46103;52.076;113.488;2023-01-28T15:04:33;-9.42;56.53
60242;SHT30;46103;52.076;113.488;2023-01-28T15:07:37;-9.42;57.06
60242;SHT30;46103;52.076;113.488;2023-01-28T15:10:46;-9.40;56.80
60242;SHT30;46103;52.076;113.488;2023-01-28T15:13:54;-9.38;56.44
60242;SHT30;46103;52.076;113.488;2023-01-28T15:16:58;-9.31;56.63
60242;SHT30;46103;52.076;113.488;2023-01-28T15:20:01;-9.32;56.37
60242;SHT30;46103;52.076;113.488;2023-01-28T15:23:06;-9.32;56.54
60242;SHT30;46103;52.076;113.488;2023-01-28T15:26:16;-9.35;56.64
60242;SHT30;46103;52.076;113.488;2023-01-28T15:29:29;-9.36;56.23
60242;SHT30;46103;52.076;113.488;2023-01-28T15:32:32;-9.36;56.78
60242;SHT30;46103;52.076;113.488;2023-01-28T15:35:36;-9.35;57.20
60242;SHT30;46103;52.076;113.488;2023-01-28T15:38:40;-9.38;56.90
60242;SHT30;46103;52.076;113.488;2023-01-28T15:41:49;-9.39;57.24
60242;SHT30;46103;52.076;113.488;2023-01-28T15:44:54;-9.40;57.32
60242;SHT30;46103;52.076;113.488;2023-01-28T15:48:03;-9.44;56.99
60242;SHT30;46103;52.076;113.488;2023-01-28T15:51:16;-9.46;57.35
60242;SHT30;46103;52.076;113.488;2023-01-28T15:54:21;-9.44;57.65
60242;SHT30;46103;52.076;113.488;2023-01-28T15:57:30;-9.40;57.90
60242;SHT30;46103;52.076;113.488;2023-01-28T16:00:34;-9.39;57.27
60242;SHT30;46103;52.076;113.488;2023-01-28T16:03:41;-9.40;57.23
60242;SHT30;46103;52.076;113.488;2023-01-28T16:06:45;-9.38;57.49
60242;SHT30;46103;52.076;113.488;2023-01-28T16:09:53;-9.47;57.31
60242;SHT30;46103;52.076;113.488;2023-01-28T16:16:10;-9.47;57.89
60242;SHT30;46103;52.076;113.488;2023-01-28T16:19:33;-9.47;57.82
60242;SHT30;46103;52.076;113.488;2023-01-28T16:22:39;-9.50;57.83
60242;SHT30;46103;52.076;113.488;2023-01-28T16:25:45;-9.54;58.41
60242;SHT30;46103;52.076;113.488;2023-01-28T16:28:48;-9.52;58.10
60242;SHT30;46103;52.076;113.488;2023-01-28T16:31:54;-9.60;57.97
60242;SHT30;46103;52.076;113.488;2023-01-28T16:34:59;-9.60;58.39
60242;SHT30;46103;52.076;113.488;2023-01-28T16:38:03;-9.59;58.93
60242;SHT30;46103;52.076;113.488;2023-01-28T16:41:23;-9.54;58.43
60242;SHT30;46103;52.076;113.488;2023-01-28T16:44:28;-9.52;58.39
60242;SHT30;46103;52.076;113.488;2023-01-28T16:47:32;-9.52;59.17
60242;SHT30;46103;52.076;113.488;2023-01-28T16:50:38;-9.47;58.46
60242;SHT30;46103;52.076;113.488;2023-01-28T16:53:44;-9.43;58.89
60242;SHT30;46103;52.076;113.488;2023-01-28T16:56:49;-9.36;58.26
60242;SHT30;46103;52.076;113.488;2023-01-28T16:59:52;-9.39;58.61
60242;SHT30;46103;52.076;113.488;2023-01-28T17:02:56;-9.43;58.93
60242;SHT30;46103;52.076;113.488;2023-01-28T17:06:00;-9.56;58.67
60242;SHT30;46103;52.076;113.488;2023-01-28T17:09:06;-9.70;58.89
60242;SHT30;46103;52.076;113.488;2023-01-28T17:12:09;-9.77;59.32
60242;SHT30;46103;52.076;113.488;2023-01-28T17:15:14;-9.80;59.44
60242;SHT30;46103;52.076;113.488;2023-01-28T17:18:18;-9.81;59.54
60242;SHT30;46103;52.076;113.488;2023-01-28T17:21:22;-9.85;59.96
60242;SHT30;46103;52.076;113.488;2023-01-28T17:24:28;-9.87;60.08
60242;SHT30;46103;52.076;113.488;2023-01-28T17:27:32;-9.85;60.16
60242;SHT30;46103;52.076;113.488;2023-01-28T17:30:40;-9.93;60.32
60242;SHT30;46103;52.076;113.488;2023-01-28T17:33:44;-10.02;60.71
60242;SHT30;46103;52.076;113.488;2023-01-28T17:36:47;-10.07;61.36
60242;SHT30;46103;52.076;113.488;2023-01-28T17:39:51;-10.01;61.49
60242;SHT30;46103;52.076;113.488;2023-01-28T17:42:55;-9.95;61.37
60242;SHT30;46103;52.076;113.488;2023-01-28T17:46:00;-9.95;61.25
60242;SHT30;46103;52.076;113.488;2023-01-28T17:49:03;-9.91;61.14
60242;SHT30;46103;52.076;113.488;2023-01-28T17:52:07;-9.87;61.01
60242;SHT30;46103;52.076;113.488;2023-01-28T17:55:11;-9.81;60.85
60242;SHT30;46103;52.076;113.488;2023-01-28T17:58:15;-9.78;60.80
60242;SHT30;46103;52.076;113.488;2023-01-28T18:01:20;-9.73;60.72
60242;SHT30;46103;52.076;113.488;2023-01-28T18:04:24;-9.67;60.63
60242;SHT30;46103;52.076;113.488;2023-01-28T18:07:27;-9.66;60.54
60242;SHT30;46103;52.076;113.488;2023-01-28T18:10:30;-9.61;60.51
60242;SHT30;46103;52.076;113.488;2023-01-28T18:13:38;-9.59;60.33
60242;SHT30;46103;52.076;113.488;2023-01-28T18:16:41;-9.56;60.26
60242;SHT30;46103;52.076;113.488;2023-01-28T18:19:45;-9.50;59.89
60242;SHT30;46103;52.076;113.488;2023-01-28T18:22:49;-9.50;59.73
60242;SHT30;46103;52.076;113.488;2023-01-28T18:25:57;-9.43;59.52
60242;SHT30;46103;52.076;113.488;2023-01-28T18:29:02;-9.40;59.42
60242;SHT30;46103;52.076;113.488;2023-01-28T18:32:06;-9.36;59.09
60242;SHT30;46103;52.076;113.488;2023-01-28T18:35:10;-9.36;59.09
60242;SHT30;46103;52.076;113.488;2023-01-28T18:38:15;-9.36;58.88
60242;SHT30;46103;52.076;113.488;2023-01-28T18:41:20;-9.39;59.03
60242;SHT30;46103;52.076;113.488;2023-01-28T18:44:25;-9.40;58.93
60242;SHT30;46103;52.076;113.488;2023-01-28T18:47:30;-9.39;58.81
60242;SHT30;46103;52.076;113.488;2023-01-28T18:50:34;-9.42;58.68
60242;SHT30;46103;52.076;113.488;2023-01-28T18:53:38;-9.50;58.62
60242;SHT30;46103;52.076;113.488;2023-01-28T18:56:42;-9.59;58.69
60242;SHT30;46103;52.076;113.488;2023-01-28T18:59:46;-9.61;58.54
60242;SHT30;46103;52.076;113.488;2023-01-28T19:02:49;-9.67;58.52
60242;SHT30;46103;52.076;113.488;2023-01-28T19:05:53;-9.70;58.38
60242;SHT30;46103;52.076;113.488;2023-01-28T19:09:03;-9.80;58.31
60242;SHT30;46103;52.076;113.488;2023-01-28T19:12:10;-9.82;58.42
60242;SHT30;46103;52.076;113.488;2023-01-28T19:15:13;-9.87;58.50
60242;SHT30;46103;52.076;113.488;2023-01-28T19:18:18;-9.98;58.68
60242;SHT30;46103;52.076;113.488;2023-01-28T19:21:22;-9.94;58.54
60242;SHT30;46103;52.076;113.488;2023-01-28T19:24:26;-9.95;58.47
60242;SHT30;46103;52.076;113.488;2023-01-28T19:27:31;-10.01;58.70
60242;SHT30;46103;52.076;113.488;2023-01-28T19:30:35;-10.02;58.73
60242;SHT30;46103;52.076;113.488;2023-01-28T19:33:39;-10.01;58.74
60242;SHT30;46103;52.076;113.488;2023-01-28T19:36:42;-10.09;58.93
60242;SHT30;46103;52.076;113.488;2023-01-28T19:39:47;-10.14;59.04
60242;SHT30;46103;52.076;113.488;2023-01-28T19:42:53;-10.21;59.17
60242;SHT30;46103;52.076;113.488;2023-01-28T19:46:04;-10.22;59.38
60242;SHT30;46103;52.076;113.488;2023-01-28T19:49:07;-10.29;59.51
60242;SHT30;46103;52.076;113.488;2023-01-28T19:52:12;-10.33;59.68
60242;SHT30;46103;52.076;113.488;2023-01-28T19:55:16;-10.32;59.84
60242;SHT30;46103;52.076;113.488;2023-01-28T19:58:20;-10.32;59.91
60242;SHT30;46103;52.076;113.488;2023-01-28T20:01:25;-10.32;60.23
60242;SHT30;46103;52.076;113.488;2023-01-28T20:04:31;-10.33;60.21
60242;SHT30;46103;52.076;113.488;2023-01-28T20:07:35;-10.36;60.42
60242;SHT30;46103;52.076;113.488;2023-01-28T20:10:38;-10.43;60.74
60242;SHT30;46103;52.076;113.488;2023-01-28T20:13:44;-10.46;60.77
60242;SHT30;46103;52.076;113.488;2023-01-28T20:16:47;-10.45;60.73
60242;SHT30;46103;52.076;113.488;2023-01-28T20:19:51;-10.45;60.59
60242;SHT30;46103;52.076;113.488;2023-01-28T20:22:55;-10.52;60.78
60242;SHT30;46103;52.076;113.488;2023-01-28T20:25:59;-10.58;60.99
60242;SHT30;46103;52.076;113.488;2023-01-28T20:29:09;-10.64;61.01
60242;SHT30;46103;52.076;113.488;2023-01-28T20:32:13;-10.68;61.04
60242;SHT30;46103;52.076;113.488;2023-01-28T20:35:22;-10.73;60.89
60242;SHT30;46103;52.076;113.488;2023-01-28T20:38:25;-10.75;60.91
60242;SHT30;46103;52.076;113.488;2023-01-28T20:41:29;-10.77;60.83
60242;SHT30;46103;52.076;113.488;2023-01-28T20:44:39;-10.81;60.66
60242;SHT30;46103;52.076;113.488;2023-01-28T20:47:43;-10.78;60.37
60242;SHT30;46103;52.076;113.488;2023-01-28T20:50:47;-10.80;60.37
60242;SHT30;46103;52.076;113.488;2023-01-28T20:53:50;-10.81;60.41
60242;SHT30;46103;52.076;113.488;2023-01-28T20:56:54;-10.77;60.22
60242;SHT30;46103;52.076;113.488;2023-01-28T20:59:58;-10.75;60.02
60242;SHT30;46103;52.076;113.488;2023-01-28T21:03:01;-10.77;59.87
60242;SHT30;46103;52.076;113.488;2023-01-28T21:06:04;-10.71;59.78
60242;SHT30;46103;52.076;113.488;2023-01-28T21:09:08;-10.75;59.82
60242;SHT30;46103;52.076;113.488;2023-01-28T21:12:11;-10.73;59.71
60242;SHT30;46103;52.076;113.488;2023-01-28T21:15:15;-10.73;59.79
60242;SHT30;46103;52.076;113.488;2023-01-28T21:18:18;-10.70;59.62
60242;SHT30;46103;52.076;113.488;2023-01-28T21:21:24;-10.68;59.62
60242;SHT30;46103;52.076;113.488;2023-01-28T21:24:27;-10.68;59.50
60242;SHT30;46103;52.076;113.488;2023-01-28T21:27:32;-10.66;59.57
60242;SHT30;46103;52.076;113.488;2023-01-28T21:30:37;-10.64;58.77
60242;SHT30;46103;52.076;113.488;2023-01-28T21:33:41;-10.64;58.74